sensor_id;sensor_type;location;lat;lon;timestamp;temperature;humidity
52435;DHT22;38354;52.892;6.148;2023-04-09T04:01:19;8.30;99.90
52435;DHT22;38354;52.892;6.148;2023-04-09T04:03:45;8.30;99.90
52435;DHT22;38354;52.892;6.148;2023-04-09T04:06:11;8.30;99.90
52435;DHT22;38354;52.892;6.148;2023-04-09T04:08:36;8.30;99.90
52435;DHT22;38354;52.892;6.148;2023-04-09T04:11:03;8.30;99.90
52435;DHT22;38354;52.892;6.148;2023-04-09T04:13:29;8.30;99.90
52435;DHT22;38354;52.892;6.148;2023-04-09T04:15:55;8.30;99.90
52435;DHT22;38354;52.892;6.148;2023-04-09T04:18:20;8.30;99.90
52435;DHT22;38354;52.892;6.148;2023-04-09T04:20:46;8.30;99.90
52435;DHT22;38354;52.892;6.148;2023-04-09T04:23:11;8.30;99.90
52435;DHT22;38354;52.892;6.148;2023-04-09T04:25:40;8.30;99.90
52435;DHT22;38354;52.892;6.148;2023-04-09T04:28:05;8.30;99.90
52435;DHT22;38354;52.892;6.148;2023-04-09T04:30:32;8.20;99.90
52435;DHT22;38354;52.892;6.148;2023-04-09T04:32:58;8.20;99.90
52435;DHT22;38354;52.892;6.148;2023-04-09T04:35:24;8.20;99.90
52435;DHT22;38354;52.892;6.148;2023-04-09T04:37:50;8.20;99.90
52435;DHT22;38354;52.892;6.148;2023-04-09T04:40:16;8.20;99.90
52435;DHT22;38354;52.892;6.148;2023-04-09T04:42:41;8.20;99.90
52435;DHT22;38354;52.892;6.148;2023-04-09T04:45:08;8.20;99.90
52435;DHT22;38354;52.892;6.148;2023-04-09T04:47:33;8.20;99.90
52435;DHT22;38354;52.892;6.148;2023-04-09T04:50:00;8.20;99.90
52435;DHT22;38354;52.892;6.148;2023-04-09T04:52:26;8.30;99.90
52435;DHT22;38354;52.892;6.148;2023-04-09T04:54:51;8.30;99.90
52435;DHT22;38354;52.892;6.148;2023-04-09T04:57:17;8.20;99.90
52435;DHT22;38354;52.892;6.148;2023-04-09T04:59:43;8.20;99.90
52435;DHT22;38354;52.892;6.148;2023-04-09T05:02:08;8.20;99.90
52435;DHT22;38354;52.892;6.148;2023-04-09T05:04:34;8.20;99.90
52435;DHT22;38354;52.892;6.148;2023-04-09T05:07:00;8.20;99.90
52435;DHT22;38354;52.892;6.148;2023-04-09T05:09:25;8.20;99.90
52435;DHT22;38354;52.892;6.148;2023-04-09T05:11:51;8.20;99.90
52435;DHT22;38354;52.892;6.148;2023-04-09T05:14:17;8.20;99.90
52435;DHT22;38354;52.892;6.148;2023-04-09T05:16:43;8.20;99.90
52435;DHT22;38354;52.892;6.148;2023-04-09T05:19:09;8.20;99.90
52435;DHT22;38354;52.892;6.148;2023-04-09T05:21:34;8.20;99.90
52435;DHT22;38354;52.892;6.148;2023-04-09T05:24:00;8.20;99.90
52435;DHT22;38354;52.892;6.148;2023-04-09T05:26:26;8.20;99.90
52435;DHT22;38354;52.892;6.148;2023-04-09T05:28:52;8.20;99.90
52435;DHT22;38354;52.892;6.148;2023-04-09T05:31:17;8.20;99.90
52435;DHT22;38354;52.892;6.148;2023-04-09T05:33:43;8.20;99.90
52435;DHT22;38354;52.892;6.148;2023-04-09T05:36:14;8.20;99.90
52435;DHT22;38354;52.892;6.148;2023-04-09T05:38:41;8.20;99.90
52435;DHT22;38354;52.892;6.148;2023-04-09T05:41:07;8.20;99.90
52435;DHT22;38354;52.892;6.148;2023-04-09T05:43:32;8.10;99.90
52435;DHT22;38354;52.892;6.148;2023-04-09T05:45:58;8.10;99.90
52435;DHT22;38354;52.892;6.148;2023-04-09T05:48:23;8.20;99.90
52435;DHT22;38354;52.892;6.148;2023-04-09T05:50:50;8.10;99.90
52435;DHT22;38354;52.892;6.148;2023-04-09T05:53:20;8.10;99.90
52435;DHT22;38354;52.892;6.148;2023-04-09T05:55:46;8.10;99.90
52435;DHT22;38354;52.892;6.148;2023-04-09T05:58:13;8.20;99.90
52435;DHT22;38354;52.892;6.148;2023-04-09T06:00:41;8.10;99.90
52435;DHT22;38354;52.892;6.148;2023-04-09T06:03:08;8.10;99.90
52435;DHT22;38354;52.892;6.148;2023-04-09T06:05:33;8.20;99.90
52435;DHT22;38354;52.892;6.148;2023-04-09T06:07:59;8.10;99.90
52435;DHT22;38354;52.892;6.148;2023-04-09T06:10:24;8.10;99.90
52435;DHT22;38354;52.892;6.148;2023-04-09T06:12:50;8.10;99.90
52435;DHT22;38354;52.892;6.148;2023-04-09T06:15:16;8.20;99.90
52435;DHT22;38354;52.892;6.148;2023-04-09T06:17:43;8.10;99.90
52435;DHT22;38354;52.892;6.148;2023-04-09T06:20:09;8.20;99.90
52435;DHT22;38354;52.892;6.148;2023-04-09T06:22:35;8.10;99.90
52435;DHT22;38354;52.892;6.148;2023-04-09T06:25:00;8.10;99.90
52435;DHT22;38354;52.892;6.148;2023-04-09T06:27:26;8.10;99.90
52435;DHT22;38354;52.892;6.148;2023-04-09T06:29:52;8.10;99.90
52435;DHT22;38354;52.892;6.148;2023-04-09T06:32:17;8.10;99.90
52435;DHT22;38354;52.892;6.148;2023-04-09T06:34:43;8.20;99.90
52435;DHT22;38354;52.892;6.148;2023-04-09T06:37:08;8.10;99.90
52435;DHT22;38354;52.892;6.148;2023-04-09T06:39:34;8.10;99.90
52435;DHT22;38354;52.892;6.148;2023-04-09T06:42:00;8.20;99.90
52435;DHT22;38354;52.892;6.148;2023-04-09T06:44:25;8.20;99.90
52435;DHT22;38354;52.892;6.148;2023-04-09T06:46:51;8.20;99.90
52435;DHT22;38354;52.892;6.148;2023-04-09T06:49:17;8.20;99.90
52435;DHT22;38354;52.892;6.148;2023-04-09T06:51:42;8.20;99.90
52435;DHT22;38354;52.892;6.148;2023-04-09T06:54:08;8.20;99.90
52435;DHT22;38354;52.892;6.148;2023-04-09T06:56:34;8.20;99.90
52435;DHT22;38354;52.892;6.148;2023-04-09T06:58:59;8.30;99.90
52435;DHT22;38354;52.892;6.148;2023-04-09T07:01:25;8.30;99.90
52435;DHT22;38354;52.892;6.148;2023-04-09T07:03:51;8.30;99.90
52435;DHT22;38354;52.892;6.148;2023-04-09T07:06:17;8.30;99.90
52435;DHT22;38354;52.892;6.148;2023-04-09T07:08:43;8.30;99.90
52435;DHT22;38354;52.892;6.148;2023-04-09T07:11:08;8.30;99.90
52435;DHT22;38354;52.892;6.148;2023-04-09T07:13:34;8.40;99.90
52435;DHT22;38354;52.892;6.148;2023-04-09T07:16:00;8.40;99.90
52435;DHT22;38354;52.892;6.148;2023-04-09T07:18:26;8.40;99.90
52435;DHT22;38354;52.892;6.148;2023-04-09T07:20:52;8.40;99.90
52435;DHT22;38354;52.892;6.148;2023-04-09T07:23:18;8.40;99.90
52435;DHT22;38354;52.892;6.148;2023-04-09T07:25:44;8.50;99.90
52435;DHT22;38354;52.892;6.148;2023-04-09T07:28:09;8.40;99.90
52435;DHT22;38354;52.892;6.148;2023-04-09T07:30:36;8.50;99.90
52435;DHT22;38354;52.892;6.148;2023-04-09T07:33:02;8.50;99.90
52435;DHT22;38354;52.892;6.148;2023-04-09T07:35:27;8.50;99.90
52435;DHT22;38354;52.892;6.148;2023-04-09T07:37:53;8.50;99.90
52435;DHT22;38354;52.892;6.148;2023-04-09T07:40:19;8.50;99.90
52435;DHT22;38354;52.892;6.148;2023-04-09T07:42:44;8.50;99.90
52435;DHT22;38354;52.892;6.148;2023-04-09T07:45:10;8.60;99.90
52435;DHT22;38354;52.892;6.148;2023-04-09T07:47:37;8.50;99.90
52435;DHT22;38354;52.892;6.148;2023-04-09T07:50:03;8.60;99.90
52435;DHT22;38354;52.892;6.148;2023-04-09T07:52:29;8.60;99.90
52435;DHT22;38354;52.892;6.148;2023-04-09T07:54:55;8.70;99.90
52435;DHT22;38354;52.892;6.148;2023-04-09T07:57:20;8.70;99.90
52435;DHT22;38354;52.892;6.148;2023-04-09T07:59:46;8.70;99.90
52435;DHT22;38354;52.892;6.148;2023-04-09T08:02:12;8.70;99.90
52435;DHT22;38354;52.892;6.148;2023-04-09T08:04:38;8.80;99.90
52435;DHT22;38354;52.892;6.148;2023-04-09T08:07:04;8.80;99.90
52435;DHT22;38354;52.892;6.148;2023-04-09T08:09:29;8.80;99.90
52435;DHT22;38354;52.892;6.148;2023-04-09T08:11:55;8.90;99.90
52435;DHT22;38354;52.892;6.148;2023-04-09T08:14:21;8.90;99.90
52435;DHT22;38354;52.892;6.148;2023-04-09T08:16:48;8.90;99.90
52435;DHT22;38354;52.892;6.148;2023-04-09T08:19:17;8.90;99.90
52435;DHT22;38354;52.892;6.148;2023-04-09T08:21:43;8.90;99.90
52435;DHT22;38354;52.892;6.148;2023-04-09T08:24:12;8.90;99.90
52435;DHT22;38354;52.892;6.148;2023-04-09T08:26:38;8.90;99.90
52435;DHT22;38354;52.892;6.148;2023-04-09T08:29:04;8.90;99.90
52435;DHT22;38354;52.892;6.148;2023-04-09T08:31:29;8.90;99.90
52435;DHT22;38354;52.892;6.148;2023-04-09T08:33:55;9.00;99.90
52435;DHT22;38354;52.892;6.148;2023-04-09T08:36:21;9.00;99.90
52435;DHT22;38354;52.892;6.148;2023-04-09T08:38:47;9.00;99.90
52435;DHT22;38354;52.892;6.148;2023-04-09T08:41:21;9.00;99.90
52435;DHT22;38354;52.892;6.148;2023-04-09T08:43:47;9.00;99.90
52435;DHT22;38354;52.892;6.148;2023-04-09T08:46:14;9.10;99.90
52435;DHT22;38354;52.892;6.148;2023-04-09T08:48:45;9.10;99.90
52435;DHT22;38354;52.892;6.148;2023-04-09T08:51:16;9.10;99.90
52435;DHT22;38354;52.892;6.148;2023-04-09T08:53:46;9.20;99.90
52435;DHT22;38354;52.892;6.148;2023-04-09T08:56:14;9.20;99.90
52435;DHT22;38354;52.892;6.148;2023-04-09T08:58:45;9.20;99.90
52435;DHT22;38354;52.892;6.148;2023-04-09T09:01:30;9.30;99.90
52435;DHT22;38354;52.892;6.148;2023-04-09T09:04:00;9.30;99.90
52435;DHT22;38354;52.892;6.148;2023-04-09T09:06:29;9.30;99.90
52435;DHT22;38354;52.892;6.148;2023-04-09T09:09:09;9.40;99.90
52435;DHT22;38354;52.892;6.148;2023-04-09T09:11:39;9.40;99.90
52435;DHT22;38354;52.892;6.148;2023-04-09T09:16:38;9.70;99.90
52435;DHT22;38354;52.892;6.148;2023-04-09T09:19:07;9.80;99.90
52435;DHT22;38354;52.892;6.148;2023-04-09T09:21:33;9.90;99.90
52435;DHT22;38354;52.892;6.148;2023-04-09T09:24:01;10.00;99.90
52435;DHT22;38354;52.892;6.148;2023-04-09T09:26:28;10.20;99.90
52435;DHT22;38354;52.892;6.148;2023-04-09T09:28:55;10.30;99.90
52435;DHT22;38354;52.892;6.148;2023-04-09T09:31:23;10.40;99.90
52435;DHT22;38354;52.892;6.148;2023-04-09T09:33:50;10.40;99.90
52435;DHT22;38354;52.892;6.148;2023-04-09T09:36:32;10.50;99.90
52435;DHT22;38354;52.892;6.148;2023-04-09T09:39:00;10.80;99.90
52435;DHT22;38354;52.892;6.148;2023-04-09T09:41:35;11.00;99.90
52435;DHT22;38354;52.892;6.148;2023-04-09T09:44:01;11.00;99.90
52435;DHT22;38354;52.892;6.148;2023-04-09T09:46:31;11.20;99.90
52435;DHT22;38354;52.892;6.148;2023-04-09T09:48:58;11.30;99.90
52435;DHT22;38354;52.892;6.148;2023-04-09T09:51:25;11.40;99.90
52435;DHT22;38354;52.892;6.148;2023-04-09T09:53:55;11.70;99.90
52435;DHT22;38354;52.892;6.148;2023-04-09T09:56:33;12.20;99.90
52435;DHT22;38354;52.892;6.148;2023-04-09T10:01:36;12.60;99.90
52435;DHT22;38354;52.892;6.148;2023-04-09T10:04:04;12.50;99.90
52435;DHT22;38354;52.892;6.148;2023-04-09T10:06:32;12.60;99.90
52435;DHT22;38354;52.892;6.148;2023-04-09T10:09:03;12.90;99.90
52435;DHT22;38354;52.892;6.148;2023-04-09T10:11:32;12.90;99.90
52435;DHT22;38354;52.892;6.148;2023-04-09T10:14:03;12.90;99.90
52435;DHT22;38354;52.892;6.148;2023-04-09T10:16:32;12.80;99.90
52435;DHT22;38354;52.892;6.148;2023-04-09T10:18:58;12.70;99.90
52435;DHT22;38354;52.892;6.148;2023-04-09T10:24:09;13.00;99.90
52435;DHT22;38354;52.892;6.148;2023-04-09T10:26:39;13.30;99.90
52435;DHT22;38354;52.892;6.148;2023-04-09T10:29:09;13.50;99.90
52435;DHT22;38354;52.892;6.148;2023-04-09T10:31:47;13.60;99.90
52435;DHT22;38354;52.892;6.148;2023-04-09T10:34:15;13.70;99.90
52435;DHT22;38354;52.892;6.148;2023-04-09T10:36:54;13.70;99.90
52435;DHT22;38354;52.892;6.148;2023-04-09T10:39:20;13.80;99.90
52435;DHT22;38354;52.892;6.148;2023-04-09T10:41:47;13.90;99.90
52435;DHT22;38354;52.892;6.148;2023-04-09T10:44:24;13.80;99.90
52435;DHT22;38354;52.892;6.148;2023-04-09T10:46:54;13.70;99.90
52435;DHT22;38354;52.892;6.148;2023-04-09T10:49:24;13.60;99.90
52435;DHT22;38354;52.892;6.148;2023-04-09T10:52:00;13.80;99.90
52435;DHT22;38354;52.892;6.148;2023-04-09T10:59:39;14.50;99.90
52435;DHT22;38354;52.892;6.148;2023-04-09T11:07:56;15.00;99.90
52435;DHT22;38354;52.892;6.148;2023-04-09T11:10:22;14.70;99.90
52435;DHT22;38354;52.892;6.148;2023-04-09T11:12:48;14.70;99.90
52435;DHT22;38354;52.892;6.148;2023-04-09T11:15:20;15.00;99.90
52435;DHT22;38354;52.892;6.148;2023-04-09T11:17:47;15.30;99.90
52435;DHT22;38354;52.892;6.148;2023-04-09T11:20:14;15.60;99.90
52435;DHT22;38354;52.892;6.148;2023-04-09T11:22:40;15.80;99.90
52435;DHT22;38354;52.892;6.148;2023-04-09T11:25:06;16.00;99.90
52435;DHT22;38354;52.892;6.148;2023-04-09T11:27:42;16.20;99.90
52435;DHT22;38354;52.892;6.148;2023-04-09T11:30:08;16.00;99.90
52435;DHT22;38354;52.892;6.148;2023-04-09T11:32:34;16.00;99.90
52435;DHT22;38354;52.892;6.148;2023-04-09T11:35:00;16.10;99.90
52435;DHT22;38354;52.892;6.148;2023-04-09T11:37:27;16.20;99.90
52435;DHT22;38354;52.892;6.148;2023-04-09T11:39:53;16.30;99.90
52435;DHT22;38354;52.892;6.148;2023-04-09T11:42:20;16.40;99.90
52435;DHT22;38354;52.892;6.148;2023-04-09T11:44:47;16.20;99.90
52435;DHT22;38354;52.892;6.148;2023-04-09T11:47:14;16.00;99.90
52435;DHT22;38354;52.892;6.148;2023-04-09T11:49:41;16.10;99.90
52435;DHT22;38354;52.892;6.148;2023-04-09T11:52:08;16.10;99.90
52435;DHT22;38354;52.892;6.148;2023-04-09T11:54:35;16.20;99.90
52435;DHT22;38354;52.892;6.148;2023-04-09T11:57:03;16.10;99.90
52435;DHT22;38354;52.892;6.148;2023-04-09T11:59:29;16.40;99.90
52435;DHT22;38354;52.892;6.148;2023-04-09T12:01:56;16.70;99.90
52435;DHT22;38354;52.892;6.148;2023-04-09T12:04:22;16.70;99.90
52435;DHT22;38354;52.892;6.148;2023-04-09T12:06:48;16.60;99.90
52435;DHT22;38354;52.892;6.148;2023-04-09T12:09:14;16.50;99.90
52435;DHT22;38354;52.892;6.148;2023-04-09T12:11:44;16.20;99.90
52435;DHT22;38354;52.892;6.148;2023-04-09T12:14:14;16.10;99.90
52435;DHT22;38354;52.892;6.148;2023-04-09T12:16:41;16.00;99.90
52435;DHT22;38354;52.892;6.148;2023-04-09T12:19:11;15.90;99.90
52435;DHT22;38354;52.892;6.148;2023-04-09T12:21:53;15.70;99.90
52435;DHT22;38354;52.892;6.148;2023-04-09T12:24:22;15.70;99.90
52435;DHT22;38354;52.892;6.148;2023-04-09T12:26:49;15.70;99.90
52435;DHT22;38354;52.892;6.148;2023-04-09T12:29:16;15.70;99.90
52435;DHT22;38354;52.892;6.148;2023-04-09T12:31:43;15.60;99.90
52435;DHT22;38354;52.892;6.148;2023-04-09T12:34:09;15.60;99.90
52435;DHT22;38354;52.892;6.148;2023-04-09T12:36:36;15.60;99.90
52435;DHT22;38354;52.892;6.148;2023-04-09T12:39:02;15.60;99.90
52435;DHT22;38354;52.892;6.148;2023-04-09T12:41:28;15.70;99.90
52435;DHT22;38354;52.892;6.148;2023-04-09T12:43:54;15.70;99.90
52435;DHT22;38354;52.892;6.148;2023-04-09T12:46:19;16.00;99.90
52435;DHT22;38354;52.892;6.148;2023-04-09T12:48:45;16.20;99.90
52435;DHT22;38354;52.892;6.148;2023-04-09T12:51:12;16.40;99.90
52435;DHT22;38354;52.892;6.148;2023-04-09T12:53:38;16.40;99.90
52435;DHT22;38354;52.892;6.148;2023-04-09T12:56:04;16.20;99.90
52435;DHT22;38354;52.892;6.148;2023-04-09T12:58:30;16.10;99.90
52435;DHT22;38354;52.892;6.148;2023-04-09T13:00:56;16.00;99.90
52435;DHT22;38354;52.892;6.148;2023-04-09T13:03:23;15.90;99.90
52435;DHT22;38354;52.892;6.148;2023-04-09T13:05:50;15.90;99.90
52435;DHT22;38354;52.892;6.148;2023-04-09T13:08:16;15.80;99.90
52435;DHT22;38354;52.892;6.148;2023-04-09T13:10:42;15.70;99.90
52435;DHT22;38354;52.892;6.148;2023-04-09T13:13:08;15.60;99.90
52435;DHT22;38354;52.892;6.148;2023-04-09T13:15:37;15.50;99.90
52435;DHT22;38354;52.892;6.148;2023-04-09T13:18:03;15.70;99.90
52435;DHT22;38354;52.892;6.148;2023-04-09T13:20:28;16.10;99.90
52435;DHT22;38354;52.892;6.148;2023-04-09T13:22:55;16.40;99.90
52435;DHT22;38354;52.892;6.148;2023-04-09T13:25:21;16.70;99.90
52435;DHT22;38354;52.892;6.148;2023-04-09T13:27:47;16.70;99.90
52435;DHT22;38354;52.892;6.148;2023-04-09T13:30:12;16.60;99.90
52435;DHT22;38354;52.892;6.148;2023-04-09T13:32:38;16.40;99.90
52435;DHT22;38354;52.892;6.148;2023-04-09T13:35:05;16.60;99.90
52435;DHT22;38354;52.892;6.148;2023-04-09T13:37:31;16.90;99.90
52435;DHT22;38354;52.892;6.148;2023-04-09T13:39:56;17.20;99.90
52435;DHT22;38354;52.892;6.148;2023-04-09T13:42:22;17.20;99.90
52435;DHT22;38354;52.892;6.148;2023-04-09T13:44:48;17.50;99.90
52435;DHT22;38354;52.892;6.148;2023-04-09T13:47:15;17.70;99.90
52435;DHT22;38354;52.892;6.148;2023-04-09T13:49:42;18.00;99.90
52435;DHT22;38354;52.892;6.148;2023-04-09T13:52:08;18.20;99.90
52435;DHT22;38354;52.892;6.148;2023-04-09T13:54:35;18.40;99.90
52435;DHT22;38354;52.892;6.148;2023-04-09T13:57:00;18.40;99.90
52435;DHT22;38354;52.892;6.148;2023-04-09T13:59:26;18.20;99.90
52435;DHT22;38354;52.892;6.148;2023-04-09T14:01:52;18.10;99.90
52435;DHT22;38354;52.892;6.148;2023-04-09T14:04:17;18.30;99.90
52435;DHT22;38354;52.892;6.148;2023-04-09T14:06:44;17.90;99.90
52435;DHT22;38354;52.892;6.148;2023-04-09T14:09:10;17.70;99.90
52435;DHT22;38354;52.892;6.148;2023-04-09T14:11:36;17.90;99.90
52435;DHT22;38354;52.892;6.148;2023-04-09T14:14:02;18.00;99.90
52435;DHT22;38354;52.892;6.148;2023-04-09T14:16:28;18.10;99.90
52435;DHT22;38354;52.892;6.148;2023-04-09T14:18:55;18.20;99.90
52435;DHT22;38354;52.892;6.148;2023-04-09T14:21:21;18.50;99.90
52435;DHT22;38354;52.892;6.148;2023-04-09T14:23:46;18.90;99.90
52435;DHT22;38354;52.892;6.148;2023-04-09T14:26:12;19.00;99.90
52435;DHT22;38354;52.892;6.148;2023-04-09T14:28:38;19.10;99.90
52435;DHT22;38354;52.892;6.148;2023-04-09T14:31:04;19.40;99.90
52435;DHT22;38354;52.892;6.148;2023-04-09T14:33:30;19.60;99.90
52435;DHT22;38354;52.892;6.148;2023-04-09T14:35:55;19.60;99.90
52435;DHT22;38354;52.892;6.148;2023-04-09T14:38:22;19.70;99.90
52435;DHT22;38354;52.892;6.148;2023-04-09T14:40:50;19.90;99.90
52435;DHT22;38354;52.892;6.148;2023-04-09T14:43:16;20.00;99.90
52435;DHT22;38354;52.892;6.148;2023-04-09T14:45:42;19.90;99.90
52435;DHT22;38354;52.892;6.148;2023-04-09T14:48:07;20.00;99.60
52435;DHT22;38354;52.892;6.148;2023-04-09T14:50:33;20.00;99.70
52435;DHT22;38354;52.892;6.148;2023-04-09T14:53:00;20.00;98.50
52435;DHT22;38354;52.892;6.148;2023-04-09T14:55:26;20.00;97.30
52435;DHT22;38354;52.892;6.148;2023-04-09T14:57:52;19.90;96.70
52435;DHT22;38354;52.892;6.148;2023-04-09T15:00:18;19.80;96.20
52435;DHT22;38354;52.892;6.148;2023-04-09T15:02:44;19.80;96.50
52435;DHT22;38354;52.892;6.148;2023-04-09T15:05:11;19.70;95.60
52435;DHT22;38354;52.892;6.148;2023-04-09T15:07:37;19.50;95.50
52435;DHT22;38354;52.892;6.148;2023-04-09T15:10:03;19.40;94.70
52435;DHT22;38354;52.892;6.148;2023-04-09T15:12:30;19.40;95.10
52435;DHT22;38354;52.892;6.148;2023-04-09T15:14:56;19.50;95.30
52435;DHT22;38354;52.892;6.148;2023-04-09T15:17:22;19.40;94.90
52435;DHT22;38354;52.892;6.148;2023-04-09T15:19:48;19.40;94.70
52435;DHT22;38354;52.892;6.148;2023-04-09T15:22:14;19.50;94.50
52435;DHT22;38354;52.892;6.148;2023-04-09T15:24:39;19.50;94.80
52435;DHT22;38354;52.892;6.148;2023-04-09T15:27:06;19.10;94.10
52435;DHT22;38354;52.892;6.148;2023-04-09T15:29:32;18.90;93.60
52435;DHT22;38354;52.892;6.148;2023-04-09T15:31:57;18.80;93.60
52435;DHT22;38354;52.892;6.148;2023-04-09T15:34:23;18.90;93.60
52435;DHT22;38354;52.892;6.148;2023-04-09T15:36:50;18.80;92.90
52435;DHT22;38354;52.892;6.148;2023-04-09T15:39:17;18.80;92.40
52435;DHT22;38354;52.892;6.148;2023-04-09T15:41:42;18.80;92.70
52435;DHT22;38354;52.892;6.148;2023-04-09T15:44:08;18.90;92.70
52435;DHT22;38354;52.892;6.148;2023-04-09T15:46:34;18.80;92.40
52435;DHT22;38354;52.892;6.148;2023-04-09T15:49:00;18.70;92.30
52435;DHT22;38354;52.892;6.148;2023-04-09T15:51:25;18.60;92.30
52435;DHT22;38354;52.892;6.148;2023-04-09T15:53:51;18.60;92.30
52435;DHT22;38354;52.892;6.148;2023-04-09T15:56:17;18.50;91.30
52435;DHT22;38354;52.892;6.148;2023-04-09T15:58:44;18.40;91.80
52435;DHT22;38354;52.892;6.148;2023-04-09T16:01:11;18.10;90.80
52435;DHT22;38354;52.892;6.148;2023-04-09T16:03:37;17.80;91.20
52435;DHT22;38354;52.892;6.148;2023-04-09T16:06:10;17.60;91.70
52435;DHT22;38354;52.892;6.148;2023-04-09T16:08:38;17.40;91.90
52435;DHT22;38354;52.892;6.148;2023-04-09T16:11:05;17.50;92.30
52435;DHT22;38354;52.892;6.148;2023-04-09T16:13:33;17.60;92.20
52435;DHT22;38354;52.892;6.148;2023-04-09T16:15:59;17.70;92.30
52435;DHT22;38354;52.892;6.148;2023-04-09T16:18:26;17.90;92.60
52435;DHT22;38354;52.892;6.148;2023-04-09T16:20:55;18.00;92.30
52435;DHT22;38354;52.892;6.148;2023-04-09T16:23:23;18.00;92.30
52435;DHT22;38354;52.892;6.148;2023-04-09T16:25:49;17.90;92.50
52435;DHT22;38354;52.892;6.148;2023-04-09T16:28:16;17.80;92.10
52435;DHT22;38354;52.892;6.148;2023-04-09T16:30:42;17.70;92.40
52435;DHT22;38354;52.892;6.148;2023-04-09T16:33:08;17.60;92.50
52435;DHT22;38354;52.892;6.148;2023-04-09T16:35:35;17.60;92.60
52435;DHT22;38354;52.892;6.148;2023-04-09T16:38:00;17.80;92.80
52435;DHT22;38354;52.892;6.148;2023-04-09T16:40:26;18.00;92.90
52435;DHT22;38354;52.892;6.148;2023-04-09T16:42:51;18.10;93.00
52435;DHT22;38354;52.892;6.148;2023-04-09T16:45:17;18.10;92.10
52435;DHT22;38354;52.892;6.148;2023-04-09T16:47:43;18.10;92.30
52435;DHT22;38354;52.892;6.148;2023-04-09T16:50:09;18.10;92.70
52435;DHT22;38354;52.892;6.148;2023-04-09T16:52:40;18.00;93.00
52435;DHT22;38354;52.892;6.148;2023-04-09T16:55:06;17.90;92.80
52435;DHT22;38354;52.892;6.148;2023-04-09T16:57:32;17.90;93.40
52435;DHT22;38354;52.892;6.148;2023-04-09T16:59:58;17.80;93.40
52435;DHT22;38354;52.892;6.148;2023-04-09T17:02:24;17.70;93.50
52435;DHT22;38354;52.892;6.148;2023-04-09T17:04:52;17.60;93.00
52435;DHT22;38354;52.892;6.148;2023-04-09T17:07:18;17.60;92.80
52435;DHT22;38354;52.892;6.148;2023-04-09T17:09:43;17.60;93.20
52435;DHT22;38354;52.892;6.148;2023-04-09T17:12:09;17.50;93.20
52435;DHT22;38354;52.892;6.148;2023-04-09T17:14:35;17.50;93.40
52435;DHT22;38354;52.892;6.148;2023-04-09T17:17:04;17.50;93.70
52435;DHT22;38354;52.892;6.148;2023-04-09T17:19:30;17.30;93.70
52435;DHT22;38354;52.892;6.148;2023-04-09T17:21:55;17.20;93.90
52435;DHT22;38354;52.892;6.148;2023-04-09T17:24:21;17.10;93.80
52435;DHT22;38354;52.892;6.148;2023-04-09T17:26:47;17.00;94.20
52435;DHT22;38354;52.892;6.148;2023-04-09T17:29:13;16.90;94.40
52435;DHT22;38354;52.892;6.148;2023-04-09T17:31:38;16.80;95.00
52435;DHT22;38354;52.892;6.148;2023-04-09T17:34:04;16.50;95.10
52435;DHT22;38354;52.892;6.148;2023-04-09T17:36:30;16.30;95.40
52435;DHT22;38354;52.892;6.148;2023-04-09T17:38:56;16.00;95.40
52435;DHT22;38354;52.892;6.148;2023-04-09T17:41:22;15.80;95.90
52435;DHT22;38354;52.892;6.148;2023-04-09T17:43:48;15.60;96.10
52435;DHT22;38354;52.892;6.148;2023-04-09T17:46:15;15.50;96.70
52435;DHT22;38354;52.892;6.148;2023-04-09T17:48:41;15.40;97.30
52435;DHT22;38354;52.892;6.148;2023-04-09T17:51:07;15.30;97.60
52435;DHT22;38354;52.892;6.148;2023-04-09T17:53:32;15.20;98.00
52435;DHT22;38354;52.892;6.148;2023-04-09T17:55:58;15.10;98.40
52435;DHT22;38354;52.892;6.148;2023-04-09T17:58:24;15.00;99.00
52435;DHT22;38354;52.892;6.148;2023-04-09T18:00:50;14.90;99.40
52435;DHT22;38354;52.892;6.148;2023-04-09T18:03:17;14.80;99.90
52435;DHT22;38354;52.892;6.148;2023-04-09T18:05:43;14.70;99.90
52435;DHT22;38354;52.892;6.148;2023-04-09T18:08:08;14.60;99.90
52435;DHT22;38354;52.892;6.148;2023-04-09T18:10:34;14.50;99.90
52435;DHT22;38354;52.892;6.148;2023-04-09T18:13:00;14.40;99.90
52435;DHT22;38354;52.892;6.148;2023-04-09T18:15:26;14.30;99.90
52435;DHT22;38354;52.892;6.148;2023-04-09T18:17:53;14.20;99.90
52435;DHT22;38354;52.892;6.148;2023-04-09T18:20:18;14.10;99.90
52435;DHT22;38354;52.892;6.148;2023-04-09T18:22:44;14.00;99.90
52435;DHT22;38354;52.892;6.148;2023-04-09T18:25:10;13.90;99.90
52435;DHT22;38354;52.892;6.148;2023-04-09T18:27:36;13.80;99.90
52435;DHT22;38354;52.892;6.148;2023-04-09T18:30:02;13.80;99.90
52435;DHT22;38354;52.892;6.148;2023-04-09T18:32:28;13.70;99.90
52435;DHT22;38354;52.892;6.148;2023-04-09T18:34:54;13.60;99.90
52435;DHT22;38354;52.892;6.148;2023-04-09T18:37:20;13.50;99.90
52435;DHT22;38354;52.892;6.148;2023-04-09T18:39:45;13.50;99.90
52435;DHT22;38354;52.892;6.148;2023-04-09T18:42:12;13.40;99.90
52435;DHT22;38354;52.892;6.148;2023-04-09T18:44:38;13.30;99.90
52435;DHT22;38354;52.892;6.148;2023-04-09T18:47:04;13.20;99.90
52435;DHT22;38354;52.892;6.148;2023-04-09T18:49:36;13.20;99.90
52435;DHT22;38354;52.892;6.148;2023-04-09T18:52:02;13.10;99.90
52435;DHT22;38354;52.892;6.148;2023-04-09T18:54:29;13.10;99.90
52435;DHT22;38354;52.892;6.148;2023-04-09T18:56:59;13.00;99.90
52435;DHT22;38354;52.892;6.148;2023-04-09T18:59:27;12.90;99.90
52435;DHT22;38354;52.892;6.148;2023-04-09T19:01:53;12.80;99.90
52435;DHT22;38354;52.892;6.148;2023-04-09T19:04:19;12.80;99.90
52435;DHT22;38354;52.892;6.148;2023-04-09T19:06:45;12.70;99.90
52435;DHT22;38354;52.892;6.148;2023-04-09T19:09:11;12.60;99.90
52435;DHT22;38354;52.892;6.148;2023-04-09T19:11:37;12.40;99.90
52435;DHT22;38354;52.892;6.148;2023-04-09T19:14:03;12.40;99.90
52435;DHT22;38354;52.892;6.148;2023-04-09T19:16:28;12.40;99.90
52435;DHT22;38354;52.892;6.148;2023-04-09T19:18:54;12.30;99.90
52435;DHT22;38354;52.892;6.148;2023-04-09T19:21:22;12.20;99.90
52435;DHT22;38354;52.892;6.148;2023-04-09T19:23:47;12.20;99.90
52435;DHT22;38354;52.892;6.148;2023-04-09T19:26:13;12.10;99.90
52435;DHT22;38354;52.892;6.148;2023-04-09T19:28:39;12.10;99.90
52435;DHT22;38354;52.892;6.148;2023-04-09T19:31:05;12.00;99.90
52435;DHT22;38354;52.892;6.148;2023-04-09T19:33:31;12.00;99.90
52435;DHT22;38354;52.892;6.148;2023-04-09T19:35:56;12.00;99.90
52435;DHT22;38354;52.892;6.148;2023-04-09T19:38:22;11.90;99.90
52435;DHT22;38354;52.892;6.148;2023-04-09T19:40:47;11.90;99.90
52435;DHT22;38354;52.892;6.148;2023-04-09T19:43:13;11.80;99.90
52435;DHT22;38354;52.892;6.148;2023-04-09T19:45:39;11.70;99.90
52435;DHT22;38354;52.892;6.148;2023-04-09T19:48:07;11.70;99.90
52435;DHT22;38354;52.892;6.148;2023-04-09T19:50:36;11.60;99.90